| time (UTC) | temp F | wind direction | speed MPH | gust MPH | rain 1hr in | rain 24hr in | rain mn in | humidity % | barometer mb |
| 20260509160716 | 79 | 212 | 1.0 | 3.0 | 0.00 | 0.00 | 0.01 | 15 | 1015.3 |
| 20260509160216 | 78 | 235 | 0.0 | 3.0 | 0.00 | 0.00 | 0.01 | 15 | 1015.3 |
| 20260509155716 | 78 | 235 | 0.0 | 3.0 | 0.00 | 0.00 | 0.01 | 16 | 1015.3 |
| 20260509155216 | 77 | 217 | 1.0 | 3.0 | 0.00 | 0.00 | 0.01 | 16 | 1015.3 |
| 20260509154716 | 77 | 228 | 1.0 | 3.0 | 0.01 | 0.00 | 0.01 | 16 | 1015.2 |
| 20260509154216 | 76 | 170 | 0.0 | 0.0 | 0.01 | 0.00 | 0.01 | 16 | 1015.2 |
| 20260509153716 | 76 | 170 | 0.0 | 3.0 | 0.01 | 0.00 | 0.01 | 17 | 1015.2 |
| 20260509153216 | 76 | 170 | 0.0 | 3.0 | 0.01 | 0.00 | 0.01 | 17 | 1015.2 |
| 20260509152716 | 77 | 236 | 0.0 | 0.0 | 0.01 | 0.00 | 0.01 | 17 | 1015.2 |
| 20260509152216 | 77 | 236 | 0.0 | 0.0 | 0.01 | 0.00 | 0.01 | 17 | 1015.2 |
| 20260509151716 | 76 | 236 | 0.0 | 0.0 | 0.01 | 0.00 | 0.01 | 18 | 1015.2 |
| 20260509151216 | 76 | 236 | 0.0 | 0.0 | 0.01 | 0.00 | 0.01 | 17 | 1015.2 |
| 20260509150716 | 76 | 236 | 0.0 | 0.0 | 0.01 | 0.00 | 0.01 | 18 | 1015.2 |
| 20260509150216 | 75 | 236 | 0.0 | 0.0 | 0.01 | 0.00 | 0.01 | 19 | 1015.2 |
| 20260509145716 | 75 | 236 | 0.0 | 0.0 | 0.01 | 0.00 | 0.01 | 18 | 1015.2 |
| 20260509145216 | 74 | 236 | 0.0 | 0.0 | 0.01 | 0.00 | 0.01 | 18 | 1015.3 |
| 20260509144716 | 74 | 236 | 0.0 | 1.0 | 0.00 | 0.00 | 0.00 | 19 | 1015.2 |
| 20260509144216 | 75 | 236 | 0.0 | 2.0 | 0.00 | 0.00 | 0.00 | 19 | 1015.3 |
| 20260509143716 | 75 | 274 | 1.0 | 2.0 | 0.00 | 0.00 | 0.00 | 20 | 1015.3 |
| 20260509143216 | 74 | 87 | 0.0 | 0.0 | 0.00 | 0.00 | 0.00 | 20 | 1015.3 |
| 20260509142716 | 74 | 87 | 0.0 | 0.0 | 0.00 | 0.00 | 0.00 | 21 | 1015.2 |
| 20260509142216 | 73 | 87 | 0.0 | 0.0 | 0.00 | 0.00 | 0.00 | 20 | 1015.2 |
| 20260509141716 | 73 | 87 | 0.0 | 0.0 | 0.00 | 0.00 | 0.00 | 20 | 1015.2 |
| 20260509141216 | 72 | 87 | 0.0 | 0.0 | 0.00 | 0.00 | 0.00 | 20 | 1015.2 |
| 20260509140716 | 72 | 87 | 0.0 | 0.0 | 0.00 | 0.00 | 0.00 | 21 | 1015.2 |
| 20260509140216 | 71 | 87 | 0.0 | 0.0 | 0.00 | 0.00 | 0.00 | 22 | 1015.2 |
| 20260509135716 | 71 | 87 | 0.0 | 0.0 | 0.00 | 0.00 | 0.00 | 21 | 1015.0 |
| 20260509135216 | 70 | 87 | 0.0 | 0.0 | 0.00 | 0.00 | 0.00 | 23 | 1015.0 |
| 20260509134716 | 69 | 87 | 0.0 | 0.0 | 0.00 | 0.00 | 0.00 | 25 | 1015.0 |
| 20260509134216 | 68 | 87 | 0.0 | 0.0 | 0.00 | 0.00 | 0.00 | 27 | 1015.0 |
| 20260509133716 | 67 | 87 | 0.0 | 0.0 | 0.00 | 0.00 | 0.00 | 30 | 1015.0 |
| 20260509133216 | 65 | 87 | 0.0 | 0.0 | 0.00 | 0.00 | 0.00 | 32 | 1014.9 |
| 20260509132716 | 63 | 87 | 0.0 | 0.0 | 0.00 | 0.00 | 0.00 | 35 | 1014.8 |
| 20260509132216 | 61 | 87 | 0.0 | 0.0 | 0.00 | 0.00 | 0.00 | 35 | 1014.8 |
| 20260509131716 | 58 | 87 | 0.0 | 0.0 | 0.00 | 0.00 | 0.00 | 38 | 1014.7 |
| 20260509131216 | 56 | 87 | 0.0 | 0.0 | 0.00 | 0.00 | 0.00 | 42 | 1014.7 |
| 20260509130716 | 55 | 87 | 0.0 | 0.0 | 0.00 | 0.00 | 0.00 | 43 | 1014.6 |
| 20260509130215 | 55 | 87 | 0.0 | 0.0 | 0.00 | 0.00 | 0.00 | 41 | 1014.5 |
| 20260509125715 | 55 | 87 | 0.0 | 0.0 | 0.00 | 0.00 | 0.00 | 40 | 1014.3 |
| 20260509125215 | 56 | 87 | 0.0 | 0.0 | 0.00 | 0.00 | 0.00 | 36 | 1014.2 |
| 20260509124715 | 56 | 87 | 0.0 | 0.0 | 0.00 | 0.00 | 0.00 | 36 | 1014.1 |
| 20260509124215 | 56 | 87 | 0.0 | 0.0 | 0.00 | 0.00 | 0.00 | 36 | 1014.1 |
| 20260509123715 | 55 | 87 | 0.0 | 0.0 | 0.00 | 0.00 | 0.00 | 37 | 1014.0 |
| 20260509123215 | 54 | 87 | 0.0 | 0.0 | 0.00 | 0.00 | 0.00 | 38 | 1014.0 |
| 20260509122715 | 54 | 87 | 0.0 | 0.0 | 0.00 | 0.00 | 0.00 | 39 | 1013.9 |
| 20260509122215 | 54 | 87 | 0.0 | 0.0 | 0.00 | 0.00 | 0.00 | 38 | 1013.8 |
| 20260509121715 | 55 | 87 | 0.0 | 0.0 | 0.00 | 0.00 | 0.00 | 37 | 1013.6 |
| 20260509121215 | 55 | 87 | 0.0 | 0.0 | 0.00 | 0.00 | 0.00 | 37 | 1013.5 |
| 20260509120715 | 55 | 87 | 0.0 | 0.0 | 0.00 | 0.00 | 0.00 | 36 | 1013.5 |
| 20260509120215 | 55 | 87 | 0.0 | 0.0 | 0.00 | 0.00 | 0.00 | 36 | 1013.4 |
| 20260509115715 | 55 | 87 | 0.0 | 0.0 | 0.00 | 0.00 | 0.00 | 37 | 1013.3 |
| 20260509115215 | 53 | 87 | 0.0 | 0.0 | 0.00 | 0.00 | 0.00 | 39 | 1013.2 |
| 20260509114715 | 53 | 87 | 0.0 | 0.0 | 0.00 | 0.00 | 0.00 | 40 | 1013.2 |
| 20260509114215 | 53 | 87 | 0.0 | 0.0 | 0.00 | 0.00 | 0.00 | 40 | 1013.2 |
| 20260509113715 | 53 | 87 | 0.0 | 0.0 | 0.00 | 0.00 | 0.00 | 39 | 1013.2 |
| 20260509113215 | 54 | 87 | 0.0 | 0.0 | 0.00 | 0.00 | 0.00 | 38 | 1013.2 |
| 20260509112715 | 54 | 87 | 0.0 | 0.0 | 0.00 | 0.00 | 0.00 | 38 | 1013.3 |
| 20260509112215 | 54 | 87 | 0.0 | 0.0 | 0.00 | 0.00 | 0.00 | 38 | 1013.3 |
| 20260509111715 | 53 | 87 | 0.0 | 0.0 | 0.00 | 0.00 | 0.00 | 40 | 1013.3 |
| 20260509111215 | 52 | 87 | 0.0 | 0.0 | 0.00 | 0.00 | 0.00 | 40 | 1013.4 |
| 20260509110715 | 53 | 87 | 0.0 | 0.0 | 0.00 | 0.00 | 0.00 | 40 | 1013.4 |
| 20260509110215 | 53 | 87 | 0.0 | 0.0 | 0.00 | 0.00 | 0.00 | 39 | 1013.4 |
| 20260509105715 | 54 | 87 | 0.0 | 0.0 | 0.00 | 0.00 | 0.00 | 37 | 1013.4 |
| 20260509105215 | 54 | 87 | 0.0 | 0.0 | 0.00 | 0.00 | 0.00 | 37 | 1013.3 |
| 20260509104715 | 54 | 87 | 0.0 | 0.0 | 0.00 | 0.00 | 0.00 | 37 | 1013.3 |
| 20260509104215 | 55 | 87 | 0.0 | 0.0 | 0.00 | 0.00 | 0.00 | 36 | 1013.3 |
| 20260509103715 | 55 | 87 | 0.0 | 0.0 | 0.00 | 0.00 | 0.00 | 36 | 1013.2 |
| 20260509103215 | 55 | 87 | 0.0 | 0.0 | 0.00 | 0.00 | 0.00 | 36 | 1013.3 |
| 20260509102715 | 55 | 87 | 0.0 | 0.0 | 0.00 | 0.00 | 0.00 | 35 | 1013.2 |
| 20260509102215 | 55 | 87 | 0.0 | 0.0 | 0.00 | 0.00 | 0.00 | 35 | 1013.2 |
| 20260509101715 | 55 | 87 | 0.0 | 0.0 | 0.00 | 0.00 | 0.00 | 36 | 1013.1 |
| 20260509101215 | 55 | 87 | 0.0 | 0.0 | 0.00 | 0.00 | 0.00 | 36 | 1013.1 |
| 20260509100715 | 55 | 87 | 0.0 | 0.0 | 0.00 | 0.00 | 0.00 | 35 | 1012.9 |
| 20260509100215 | 56 | 87 | 0.0 | 0.0 | 0.00 | 0.00 | 0.00 | 34 | 1013.1 |
| 20260509095715 | 57 | 87 | 0.0 | 0.0 | 0.00 | 0.00 | 0.00 | 32 | 1012.9 |
| 20260509095215 | 60 | 87 | 0.0 | 0.0 | 0.00 | 0.00 | 0.00 | 29 | 1012.9 |
| 20260509094715 | 61 | 87 | 0.0 | 0.0 | 0.00 | 0.00 | 0.00 | 28 | 1012.8 |
| 20260509094019 | 62 | 87 | 0.0 | 0.0 | 0.00 | 0.00 | 0.00 | 26 | 1012.8 |
| 20260509093519 | 62 | 87 | 0.0 | 0.0 | 0.00 | 0.00 | 0.00 | 26 | 1012.8 |
| 20260509093019 | 63 | 87 | 0.0 | 0.0 | 0.00 | 0.00 | 0.00 | 25 | 1012.7 |
| 20260509092519 | 63 | 87 | 0.0 | 0.0 | 0.00 | 0.00 | 0.00 | 25 | 1012.7 |
| 20260509092019 | 63 | 87 | 0.0 | 0.0 | 0.00 | 0.00 | 0.00 | 25 | 1012.7 |
| 20260509091519 | 63 | 87 | 0.0 | 0.0 | 0.00 | 0.00 | 0.00 | 26 | 1012.7 |
| 20260509091019 | 63 | 87 | 0.0 | 0.0 | 0.00 | 0.00 | 0.00 | 25 | 1012.7 |
| 20260509090519 | 64 | 87 | 0.0 | 4.0 | 0.00 | 0.00 | 0.00 | 25 | 1012.6 |
| 20260509090019 | 64 | 87 | 0.0 | 4.0 | 0.00 | 0.00 | 0.00 | 24 | 1012.7 |
| 20260509085519 | 65 | 14 | 0.0 | 5.0 | 0.00 | 0.00 | 0.00 | 24 | 1012.7 |
| 20260509085019 | 65 | 14 | 0.0 | 6.0 | 0.00 | 0.00 | 0.00 | 23 | 1012.7 |
| 20260509084519 | 65 | 11 | 0.0 | 6.0 | 0.00 | 0.00 | 0.00 | 23 | 1012.6 |
| 20260509084019 | 65 | 329 | 0.0 | 0.0 | 0.00 | 0.00 | 0.00 | 24 | 1012.6 |
| 20260509083519 | 66 | 329 | 0.0 | 5.0 | 0.00 | 0.00 | 0.00 | 23 | 1012.6 |
| 20260509083019 | 66 | 329 | 0.0 | 7.0 | 0.00 | 0.00 | 0.00 | 22 | 1012.5 |
| 20260509082519 | 65 | 13 | 1.0 | 7.0 | 0.00 | 0.00 | 0.00 | 21 | 1012.5 |
| 20260509082019 | 65 | 68 | 0.0 | 0.0 | 0.00 | 0.00 | 0.00 | 23 | 1012.5 |
| 20260509081519 | 66 | 68 | 0.0 | 4.0 | 0.00 | 0.00 | 0.00 | 21 | 1012.5 |
| 20260509081019 | 67 | 68 | 0.0 | 6.0 | 0.00 | 0.00 | 0.00 | 20 | 1012.5 |
| 20260509080519 | 70 | 79 | 2.0 | 6.0 | 0.00 | 0.00 | 0.00 | 18 | 1012.5 |
| 20260509080019 | 72 | 158 | 0.0 | 10.0 | 0.00 | 0.00 | 0.00 | 15 | 1012.5 |
| 20260509075519 | 72 | 158 | 3.0 | 12.0 | 0.00 | 0.00 | 0.00 | 14 | 1012.5 |
| 20260509075019 | 71 | 194 | 8.0 | 12.0 | 0.00 | 0.00 | 0.00 | 15 | 1012.5 |
| 20260509074519 | 71 | 172 | 6.0 | 10.0 | 0.00 | 0.00 | 0.00 | 16 | 1012.5 |
| 20260509074019 | 71 | 214 | 1.0 | 10.0 | 0.00 | 0.00 | 0.00 | 15 | 1012.5 |
| 20260509073519 | 69 | 124 | 5.0 | 10.0 | 0.00 | 0.00 | 0.00 | 16 | 1012.4 |
| 20260509073019 | 66 | 136 | 0.0 | 2.0 | 0.00 | 0.00 | 0.00 | 20 | 1012.5 |
| 20260509072519 | 65 | 59 | 0.0 | 0.0 | 0.00 | 0.00 | 0.00 | 22 | 1012.5 |
| 20260509072019 | 65 | 59 | 0.0 | 0.0 | 0.00 | 0.00 | 0.00 | 22 | 1012.5 |
| 20260509071519 | 65 | 59 | 0.0 | 0.0 | 0.00 | 0.00 | 0.00 | 22 | 1012.6 |
| 20260509071019 | 65 | 59 | 0.0 | 0.0 | 0.00 | 0.00 | 0.00 | 22 | 1012.6 |
| 20260509070519 | 66 | 59 | 0.0 | 0.0 | 0.00 | 0.00 | 0.00 | 22 | 1012.6 |
| 20260509070019 | 65 | 59 | 0.0 | 0.0 | 0.00 | 0.00 | 0.00 | 22 | 1012.7 |
| 20260509065519 | 64 | 59 | 0.0 | 5.0 | 0.00 | 0.00 | 0.00 | 23 | 1012.8 |
| 20260509065019 | 64 | 59 | 2.0 | 6.0 | 0.00 | 0.00 | 0.00 | 24 | 1012.7 |
| 20260509064519 | 64 | 94 | 1.0 | 6.0 | 0.00 | 0.00 | 0.00 | 24 | 1012.8 |
| 20260509064019 | 66 | 97 | 0.0 | 0.0 | 0.00 | 0.00 | 0.00 | 22 | 1012.8 |
| 20260509063519 | 67 | 97 | 0.0 | 0.0 | 0.00 | 0.00 | 0.00 | 20 | 1012.8 |
| 20260509063019 | 68 | 97 | 0.0 | 0.0 | 0.00 | 0.00 | 0.00 | 19 | 1012.8 |
| 20260509062519 | 67 | 97 | 0.0 | 0.0 | 0.00 | 0.00 | 0.00 | 19 | 1012.9 |
| 20260509062019 | 67 | 97 | 0.0 | 0.0 | 0.00 | 0.00 | 0.00 | 20 | 1012.9 |
| 20260509061519 | 68 | 97 | 0.0 | 2.0 | 0.00 | 0.00 | 0.00 | 19 | 1012.8 |
| 20260509061019 | 69 | 97 | 0.0 | 2.0 | 0.00 | 0.00 | 0.00 | 19 | 1012.8 |
| 20260509060519 | 72 | 124 | 0.0 | 3.0 | 0.00 | 0.00 | 0.00 | 17 | 1012.8 |
| 20260509060019 | 74 | 124 | 0.0 | 8.0 | 0.00 | 0.00 | 0.00 | 14 | 1012.8 |
| 20260509055519 | 75 | 129 | 1.0 | 8.0 | 0.00 | 0.00 | 0.00 | 12 | 1012.7 |
| 20260509055019 | 75 | 163 | 0.0 | 7.0 | 0.00 | 0.00 | 0.00 | 13 | 1012.8 |
| 20260509054519 | 75 | 156 | 2.0 | 7.0 | 0.00 | 0.00 | 0.00 | 13 | 1012.8 |
| 20260509054019 | 75 | 150 | 1.0 | 12.0 | 0.00 | 0.00 | 0.00 | 13 | 1012.7 |
| 20260509053519 | 76 | 163 | 1.0 | 12.0 | 0.00 | 0.00 | 0.00 | 13 | 1012.8 |
| 20260509053019 | 75 | 160 | 5.0 | 9.0 | 0.00 | 0.00 | 0.00 | 13 | 1012.7 |
| 20260509052519 | 75 | 135 | 6.0 | 9.0 | 0.00 | 0.00 | 0.00 | 13 | 1012.7 |
| 20260509052019 | 75 | 172 | 1.0 | 5.0 | 0.00 | 0.00 | 0.00 | 13 | 1012.7 |
| 20260509051519 | 74 | 103 | 0.0 | 6.0 | 0.00 | 0.00 | 0.00 | 14 | 1012.7 |
| 20260509051019 | 74 | 124 | 0.0 | 9.0 | 0.00 | 0.00 | 0.00 | 14 | 1012.6 |
| 20260509050519 | 75 | 48 | 4.0 | 13.0 | 0.00 | 0.00 | 0.00 | 14 | 1012.7 |
| 20260509050019 | 76 | 104 | 7.0 | 13.0 | 0.00 | 0.00 | 0.00 | 13 | 1012.6 |
| 20260509045519 | 76 | 108 | 8.0 | 12.0 | 0.00 | 0.00 | 0.00 | 13 | 1012.6 |
| 20260509045019 | 76 | 97 | 7.0 | 13.0 | 0.00 | 0.00 | 0.00 | 13 | 1012.7 |
| 20260509044519 | 76 | 122 | 5.0 | 13.0 | 0.00 | 0.00 | 0.00 | 13 | 1012.6 |
| 20260509044019 | 77 | 101 | 6.0 | 11.0 | 0.00 | 0.00 | 0.00 | 13 | 1012.6 |
| 20260509043519 | 77 | 131 | 2.0 | 9.0 | 0.00 | 0.00 | 0.00 | 13 | 1012.6 |
| 20260509043019 | 77 | 138 | 4.0 | 11.0 | 0.00 | 0.00 | 0.00 | 13 | 1012.5 |
| 20260509042519 | 77 | 83 | 3.0 | 11.0 | 0.00 | 0.00 | 0.00 | 13 | 1012.6 |
| 20260509042019 | 77 | 75 | 6.0 | 11.0 | 0.00 | 0.00 | 0.00 | 13 | 1012.5 |
| 20260509041519 | 77 | 128 | 7.0 | 13.0 | 0.00 | 0.00 | 0.00 | 13 | 1012.5 |
| 20260509041019 | 77 | 86 | 7.0 | 13.0 | 0.00 | 0.00 | 0.00 | 13 | 1012.5 |
| 20260509040519 | 77 | 80 | 8.0 | 13.0 | 0.00 | 0.00 | 0.00 | 13 | 1012.5 |
| 20260509040019 | 76 | 83 | 9.0 | 12.0 | 0.00 | 0.00 | 0.00 | 13 | 1012.5 |
| 20260509035518 | 76 | 98 | 6.0 | 12.0 | 0.00 | 0.00 | 0.00 | 14 | 1012.5 |
| 20260509035018 | 76 | 139 | 9.0 | 12.0 | 0.00 | 0.00 | 0.00 | 13 | 1012.4 |
| 20260509034518 | 74 | 98 | 5.0 | 10.0 | 0.00 | 0.00 | 0.00 | 14 | 1012.4 |
| 20260509034018 | 73 | 179 | 0.0 | 6.0 | 0.00 | 0.00 | 0.00 | 15 | 1012.4 |
| 20260509033518 | 73 | 179 | 0.0 | 9.0 | 0.00 | 0.00 | 0.00 | 15 | 1012.2 |
| 20260509033020 | 72 | 156 | 4.0 | 9.0 | 0.00 | 0.00 | 0.00 | 15 | 1012.1 |
| 20260509032520 | 71 | 79 | 0.0 | 0.0 | 0.00 | 0.00 | 0.00 | 17 | 1012.1 |
| 20260509032020 | 71 | 79 | 0.0 | 0.0 | 0.00 | 0.00 | 0.00 | 17 | 1012.1 |
| 20260509031520 | 72 | 79 | 0.0 | 0.0 | 0.00 | 0.00 | 0.00 | 17 | 1012.0 |
| 20260509031020 | 72 | 79 | 0.0 | 5.0 | 0.00 | 0.00 | 0.00 | 16 | 1011.8 |
| 20260509030520 | 72 | 79 | 0.0 | 5.0 | 0.00 | 0.00 | 0.00 | 16 | 1011.5 |
| 20260509030020 | 72 | 113 | 3.0 | 5.0 | 0.00 | 0.00 | 0.00 | 16 | 1011.5 |
| 20260509025521 | 72 | 77 | 0.0 | 0.0 | 0.00 | 0.00 | 0.00 | 16 | 1011.7 |
| 20260509025020 | 73 | 77 | 0.0 | 0.0 | 0.00 | 0.00 | 0.00 | 16 | 1011.5 |
| 20260509024520 | 72 | 77 | 0.0 | 0.0 | 0.00 | 0.00 | 0.00 | 15 | 1011.7 |
| 20260509024020 | 72 | 77 | 0.0 | 0.0 | 0.00 | 0.00 | 0.00 | 16 | 1011.5 |
| 20260509023520 | 71 | 77 | 0.0 | 0.0 | 0.00 | 0.00 | 0.00 | 17 | 1011.3 |
| 20260509023020 | 71 | 77 | 0.0 | 0.0 | 0.00 | 0.00 | 0.00 | 17 | 1011.3 |
| 20260509022520 | 72 | 77 | 0.0 | 0.0 | 0.00 | 0.00 | 0.00 | 16 | 1011.2 |
| 20260509022020 | 74 | 77 | 0.0 | 0.0 | 0.00 | 0.00 | 0.00 | 16 | 1011.2 |
| 20260509021520 | 75 | 77 | 0.0 | 4.0 | 0.00 | 0.00 | 0.00 | 14 | 1011.1 |
| 20260509021020 | 77 | 77 | 0.0 | 4.0 | 0.00 | 0.00 | 0.00 | 13 | 1011.1 |
| 20260509020520 | 79 | 294 | 0.0 | 0.0 | 0.00 | 0.00 | 0.00 | 11 | 1011.0 |
| 20260509020020 | 80 | 294 | 0.0 | 0.0 | 0.00 | 0.00 | 0.00 | 11 | 1011.0 |
| 20260509015520 | 80 | 294 | 0.0 | 0.0 | 0.00 | 0.00 | 0.00 | 10 | 1011.0 |
| 20260509015020 | 81 | 294 | 0.0 | 4.0 | 0.00 | 0.00 | 0.00 | 10 | 1010.8 |
| 20260509014520 | 81 | 294 | 0.0 | 4.0 | 0.00 | 0.00 | 0.00 | 10 | 1010.7 |
| 20260509014020 | 81 | 315 | 0.0 | 2.0 | 0.00 | 0.00 | 0.00 | 10 | 1010.7 |
| 20260509013520 | 82 | 277 | 0.0 | 5.0 | 0.00 | 0.00 | 0.00 | 9 | 1010.7 |
| 20260509013020 | 82 | 277 | 0.0 | 5.0 | 0.00 | 0.00 | 0.00 | 9 | 1010.6 |
| 20260509012520 | 82 | 274 | 0.0 | 7.0 | 0.00 | 0.00 | 0.00 | 9 | 1010.6 |
| 20260509012020 | 83 | 274 | 0.0 | 7.0 | 0.00 | 0.00 | 0.00 | 9 | 1010.6 |
| 20260509011520 | 83 | 246 | 1.0 | 10.0 | 0.00 | 0.00 | 0.00 | 8 | 1010.5 |
| 20260509011020 | 83 | 24 | 4.0 | 11.0 | 0.00 | 0.00 | 0.00 | 8 | 1010.5 |
| 20260509010520 | 84 | 274 | 0.0 | 11.0 | 0.00 | 0.00 | 0.00 | 8 | 1010.5 |
| 20260509010020 | 84 | 293 | 2.0 | 11.0 | 0.00 | 0.00 | 0.00 | 8 | 1010.5 |
| 20260509005520 | 84 | 219 | 0.0 | 14.0 | 0.00 | 0.00 | 0.00 | 8 | 1010.5 |
| 20260509005020 | 84 | 291 | 8.0 | 14.0 | 0.00 | 0.00 | 0.00 | 7 | 1010.5 |
| 20260509004520 | 85 | 267 | 3.0 | 12.0 | 0.00 | 0.00 | 0.00 | 7 | 1010.5 |
| 20260509004020 | 85 | 231 | 0.0 | 9.0 | 0.00 | 0.00 | 0.00 | 7 | 1010.4 |
| 20260509003520 | 86 | 288 | 0.0 | 11.0 | 0.00 | 0.00 | 0.00 | 8 | 1010.5 |
| 20260509003021 | 85 | 270 | 1.0 | 12.0 | 0.00 | 0.00 | 0.00 | 8 | 1010.5 |
| 20260509002520 | 85 | 259 | 6.0 | 12.0 | 0.00 | 0.00 | 0.00 | 7 | 1010.4 |
| 20260509002020 | 85 | 271 | 1.0 | 10.0 | 0.00 | 0.00 | 0.00 | 8 | 1010.4 |
| 20260509001520 | 85 | 314 | 4.0 | 11.0 | 0.00 | 0.00 | 0.00 | 7 | 1010.4 |
| 20260509001020 | 85 | 302 | 5.0 | 15.0 | 0.00 | 0.00 | 0.00 | 7 | 1010.4 |
| 20260509000520 | 86 | 304 | 6.0 | 15.0 | 0.00 | 0.00 | 0.00 | 7 | 1010.4 |
| 20260509000020 | 86 | 350 | 2.0 | 14.0 | 0.00 | 0.00 | 0.00 | 8 | 1010.3 |
| 20260508235520 | 86 | 228 | 2.0 | 14.0 | 0.00 | 0.00 | 0.00 | 8 | 1010.3 |
| 20260508235020 | 86 | 311 | 8.0 | 12.0 | 0.00 | 0.00 | 0.00 | 7 | 1010.4 |
| 20260508234520 | 86 | 273 | 4.0 | 10.0 | 0.00 | 0.00 | 0.00 | 7 | 1010.4 |
| 20260508234020 | 86 | 277 | 4.0 | 11.0 | 0.00 | 0.00 | 0.00 | 7 | 1010.3 |
| 20260508233520 | 87 | 278 | 3.0 | 11.0 | 0.00 | 0.00 | 0.00 | 7 | 1010.3 |
| 20260508233020 | 86 | 257 | 2.0 | 10.0 | 0.00 | 0.00 | 0.00 | 8 | 1010.4 |
| 20260508232520 | 86 | 290 | 1.0 | 11.0 | 0.00 | 0.00 | 0.00 | 8 | 1010.4 |
| 20260508232020 | 85 | 357 | 4.0 | 12.0 | 0.00 | 0.00 | 0.00 | 8 | 1010.4 |
| 20260508231520 | 86 | 302 | 6.0 | 19.0 | 0.00 | 0.00 | 0.00 | 7 | 1010.5 |
| 20260508231020 | 86 | 323 | 8.0 | 19.0 | 0.00 | 0.00 | 0.00 | 7 | 1010.5 |
| 20260508230520 | 86 | 290 | 1.0 | 13.0 | 0.00 | 0.00 | 0.00 | 7 | 1010.4 |
| 20260508230020 | 86 | 309 | 5.0 | 13.0 | 0.00 | 0.00 | 0.00 | 7 | 1010.4 |
| 20260508225520 | 86 | 330 | 4.0 | 12.0 | 0.00 | 0.00 | 0.00 | 7 | 1010.4 |
| 20260508225020 | 86 | 8 | 5.0 | 12.0 | 0.00 | 0.00 | 0.00 | 7 | 1010.4 |
| 20260508224520 | 86 | 291 | 7.0 | 16.0 | 0.00 | 0.00 | 0.00 | 7 | 1010.4 |
| 20260508224020 | 86 | 204 | 2.0 | 16.0 | 0.00 | 0.00 | 0.00 | 7 | 1010.3 |
| 20260508223520 | 87 | 205 | 9.0 | 13.0 | 0.00 | 0.00 | 0.00 | 7 | 1010.4 |
| 20260508223020 | 87 | 257 | 1.0 | 12.0 | 0.00 | 0.00 | 0.00 | 8 | 1010.5 |
| 20260508222520 | 86 | 329 | 4.0 | 17.0 | 0.00 | 0.00 | 0.00 | 7 | 1010.5 |
| 20260508222020 | 86 | 281 | 7.0 | 17.0 | 0.00 | 0.00 | 0.00 | 7 | 1010.6 |
| 20260508221520 | 86 | 305 | 4.0 | 11.0 | 0.00 | 0.00 | 0.00 | 7 | 1010.5 |
| 20260508221020 | 86 | 4 | 3.0 | 15.0 | 0.00 | 0.00 | 0.00 | 7 | 1010.6 |
| 20260508220520 | 86 | 301 | 9.0 | 15.0 | 0.00 | 0.00 | 0.00 | 6 | 1010.6 |
| 20260508220020 | 87 | 307 | 7.0 | 14.0 | 0.00 | 0.00 | 0.00 | 7 | 1010.6 |
| 20260508215520 | 86 | 278 | 0.0 | 14.0 | 0.00 | 0.00 | 0.00 | 7 | 1010.7 |
| 20260508215020 | 87 | 323 | 3.0 | 13.0 | 0.00 | 0.00 | 0.00 | 7 | 1010.8 |
| 20260508214520 | 86 | 249 | 5.0 | 9.0 | 0.00 | 0.00 | 0.00 | 7 | 1010.8 |
| 20260508214020 | 85 | 256 | 5.0 | 15.0 | 0.00 | 0.00 | 0.00 | 7 | 1010.8 |
| 20260508213520 | 86 | 340 | 4.0 | 15.0 | 0.00 | 0.00 | 0.00 | 7 | 1011.1 |
| 20260508213020 | 86 | 302 | 4.0 | 15.0 | 0.00 | 0.00 | 0.00 | 7 | 1011.0 |
| 20260508212520 | 85 | 295 | 3.0 | 11.0 | 0.00 | 0.00 | 0.00 | 7 | 1010.8 |
| 20260508212020 | 85 | 311 | 6.0 | 15.0 | 0.00 | 0.00 | 0.00 | 6 | 1011.1 |
| 20260508211520 | 85 | 270 | 7.0 | 15.0 | 0.00 | 0.00 | 0.00 | 6 | 1011.2 |
| 20260508211020 | 85 | 314 | 6.0 | 18.0 | 0.00 | 0.00 | 0.00 | 6 | 1011.2 |
| 20260508210520 | 85 | 316 | 6.0 | 19.0 | 0.00 | 0.00 | 0.00 | 6 | 1011.2 |
| 20260508210020 | 86 | 346 | 12.0 | 19.0 | 0.00 | 0.00 | 0.00 | 6 | 1011.2 |
| 20260508205520 | 86 | 314 | 6.0 | 13.0 | 0.00 | 0.00 | 0.00 | 6 | 1011.2 |
| 20260508205020 | 86 | 297 | 2.0 | 12.0 | 0.00 | 0.00 | 0.00 | 6 | 1011.3 |
| 20260508204520 | 85 | 239 | 4.0 | 17.0 | 0.00 | 0.00 | 0.00 | 6 | 1011.2 |
| 20260508204020 | 85 | 283 | 6.0 | 17.0 | 0.00 | 0.00 | 0.00 | 7 | 1011.3 |
| 20260508203520 | 85 | 6 | 2.0 | 15.0 | 0.00 | 0.00 | 0.00 | 7 | 1011.4 |
| 20260508203020 | 85 | 328 | 4.0 | 14.0 | 0.00 | 0.00 | 0.00 | 7 | 1011.4 |
| 20260508202520 | 85 | 326 | 5.0 | 14.0 | 0.00 | 0.00 | 0.00 | 7 | 1011.5 |
| 20260508202020 | 84 | 332 | 8.0 | 17.0 | 0.00 | 0.00 | 0.00 | 7 | 1011.5 |
| 20260508201520 | 85 | 290 | 8.0 | 17.0 | 0.00 | 0.00 | 0.00 | 8 | 1011.7 |
| 20260508201020 | 85 | 24 | 0.0 | 11.0 | 0.00 | 0.00 | 0.00 | 7 | 1011.7 |
| 20260508200520 | 84 | 359 | 6.0 | 15.0 | 0.00 | 0.00 | 0.00 | 6 | 1011.8 |
| 20260508200020 | 83 | 342 | 6.0 | 15.0 | 0.00 | 0.00 | 0.00 | 8 | 1011.9 |
| 20260508195520 | 84 | 8 | 7.0 | 13.0 | 0.00 | 0.00 | 0.00 | 7 | 1011.9 |
| 20260508195020 | 84 | 300 | 3.0 | 12.0 | 0.00 | 0.00 | 0.00 | 7 | 1011.9 |
| 20260508194520 | 84 | 319 | 6.0 | 10.0 | 0.00 | 0.00 | 0.00 | 8 | 1011.9 |
| 20260508194020 | 84 | 308 | 3.0 | 14.0 | 0.00 | 0.00 | 0.00 | 7 | 1011.9 |
| 20260508193520 | 84 | 266 | 5.0 | 19.0 | 0.00 | 0.00 | 0.00 | 7 | 1012.0 |
| 20260508193020 | 84 | 10 | 7.0 | 19.0 | 0.00 | 0.00 | 0.00 | 8 | 1012.0 |
| 20260508192520 | 83 | 352 | 3.0 | 15.0 | 0.00 | 0.00 | 0.00 | 8 | 1012.0 |
| 20260508192019 | 84 | 305 | 5.0 | 15.0 | 0.00 | 0.00 | 0.00 | 7 | 1012.1 |
| 20260508191520 | 84 | 276 | 0.0 | 11.0 | 0.00 | 0.00 | 0.00 | 7 | 1012.1 |
| 20260508191019 | 84 | 307 | 2.0 | 11.0 | 0.00 | 0.00 | 0.00 | 7 | 1012.2 |
| 20260508190519 | 83 | 281 | 0.0 | 10.0 | 0.00 | 0.00 | 0.00 | 7 | 1012.4 |
| 20260508190019 | 83 | 1 | 0.0 | 11.0 | 0.00 | 0.00 | 0.00 | 7 | 1012.5 |
| 20260508185519 | 82 | 347 | 6.0 | 12.0 | 0.00 | 0.00 | 0.00 | 7 | 1012.6 |
| 20260508185019 | 82 | 14 | 8.0 | 12.0 | 0.00 | 0.00 | 0.00 | 7 | 1012.6 |
| 20260508184519 | 82 | 11 | 0.0 | 9.0 | 0.00 | 0.00 | 0.00 | 8 | 1012.7 |
| 20260508184019 | 82 | 11 | 2.0 | 10.0 | 0.00 | 0.00 | 0.00 | 7 | 1012.8 |
| 20260508183519 | 83 | 328 | 6.0 | 10.0 | 0.00 | 0.00 | 0.00 | 7 | 1012.8 |
| 20260508183019 | 83 | 277 | 1.0 | 12.0 | 0.00 | 0.00 | 0.00 | 8 | 1012.9 |
| 20260508182519 | 82 | 291 | 4.0 | 12.0 | 0.00 | 0.00 | 0.00 | 8 | 1013.1 |
| 20260508182019 | 82 | 225 | 0.0 | 11.0 | 0.00 | 0.00 | 0.00 | 7 | 1013.1 |
| 20260508181519 | 82 | 301 | 3.0 | 13.0 | 0.00 | 0.00 | 0.00 | 9 | 1013.2 |
| 20260508181019 | 81 | 300 | 5.0 | 13.0 | 0.00 | 0.00 | 0.00 | 9 | 1013.2 |
| 20260508180519 | 81 | 314 | 6.0 | 11.0 | 0.00 | 0.00 | 0.00 | 9 | 1013.3 |
| 20260508180019 | 81 | 354 | 0.0 | 11.0 | 0.00 | 0.00 | 0.00 | 11 | 1013.3 |
| 20260508175519 | 80 | 305 | 6.0 | 10.0 | 0.00 | 0.00 | 0.00 | 10 | 1013.3 |
| 20260508175019 | 80 | 326 | 3.0 | 11.0 | 0.00 | 0.00 | 0.00 | 10 | 1013.5 |
| 20260508174519 | 80 | 318 | 7.0 | 11.0 | 0.00 | 0.00 | 0.00 | 11 | 1013.4 |
| 20260508174019 | 79 | 49 | 0.0 | 10.0 | 0.00 | 0.00 | 0.00 | 12 | 1013.5 |
| 20260508173519 | 80 | 203 | 3.0 | 10.0 | 0.00 | 0.00 | 0.00 | 12 | 1013.6 |
| 20260508173019 | 80 | 316 | 4.0 | 9.0 | 0.00 | 0.00 | 0.00 | 12 | 1013.8 |
| 20260508172519 | 81 | 354 | 2.0 | 10.0 | 0.00 | 0.00 | 0.00 | 11 | 1013.8 |
| 20260508172020 | 81 | 345 | 0.0 | 10.0 | 0.00 | 0.00 | 0.00 | 12 | 1013.9 |
| 20260508171519 | 80 | 214 | 0.0 | 10.0 | 0.00 | 0.00 | 0.00 | 14 | 1014.0 |
| 20260508171019 | 80 | 308 | 0.0 | 11.0 | 0.00 | 0.00 | 0.00 | 13 | 1014.0 |
| 20260508170519 | 81 | 301 | 4.0 | 11.0 | 0.00 | 0.00 | 0.00 | 14 | 1014.1 |
| 20260508170019 | 80 | 235 | 1.0 | 7.0 | 0.00 | 0.00 | 0.00 | 14 | 1014.1 |
| 20260508165519 | 79 | 302 | 1.0 | 7.0 | 0.00 | 0.00 | 0.00 | 15 | 1014.1 |
| 20260508165019 | 78 | 274 | 1.0 | 5.0 | 0.00 | 0.00 | 0.00 | 16 | 1014.2 |
| 20260508164519 | 79 | 7 | 2.0 | 7.0 | 0.00 | 0.00 | 0.00 | 15 | 1014.1 |
| 20260508164019 | 79 | 330 | 5.0 | 7.0 | 0.00 | 0.00 | 0.00 | 15 | 1014.2 |
| 20260508163519 | 78 | 294 | 0.0 | 3.0 | 0.00 | 0.00 | 0.00 | 16 | 1014.1 |
| 20260508163019 | 78 | 294 | 0.0 | 3.0 | 0.00 | 0.00 | 0.00 | 17 | 1014.2 |
| 20260508162519 | 77 | 312 | 0.0 | 6.0 | 0.00 | 0.00 | 0.00 | 17 | 1014.2 |
| 20260508162019 | 77 | 312 | 0.0 | 6.0 | 0.00 | 0.00 | 0.00 | 18 | 1014.2 |
| 20260508161519 | 76 | 45 | 0.0 | 6.0 | 0.00 | 0.00 | 0.00 | 17 | 1014.2 |
| 20260508161019 | 76 | 353 | 0.0 | 6.0 | 0.00 | 0.00 | 0.00 | 18 | 1014.3 |